Time;durP1;ratioP1;P1;durP2;ratioP2;P2;SDS_P1;SDS_P2;PMS_P1;PMS_P2;Temp;Humidity;BMP_temperature;BMP_pressure;BME280_temperature;BME280_humidity;BME280_pressure;Samples;Min_cycle;Max_cycle;Signal;HPM_P1;HPM_P2
2022/04/06 00:01:49;;;;;;;0.10;0.10;;;12.90;61.70;;;;;;5091217;28;20036;-78
2022/04/06 00:04:16;;;;;;;0.00;0.00;;;12.80;61.90;;;;;;5085055;28;20024;-77
2022/04/06 00:06:42;;;;;;;0.00;0.00;;;12.50;62.50;;;;;;5075999;28;20535;-78
2022/04/06 00:09:08;;;;;;;0.00;0.00;;;12.40;62.70;;;;;;5074011;28;20085;-79
2022/04/06 00:11:34;;;;;;;0.00;0.00;;;12.40;61.90;;;;;;5114004;28;20031;-78
2022/04/06 00:14:00;;;;;;;0.00;0.00;;;12.40;62.40;;;;;;5099893;28;20024;-78
2022/04/06 00:16:27;;;;;;;0.00;0.00;;;12.40;62.90;;;;;;5089864;28;20023;-79
2022/04/06 00:18:53;;;;;;;0.13;0.13;;;12.40;63.30;;;;;;5091839;28;20027;-79
2022/04/06 00:21:25;;;;;;;0.00;0.00;;;12.30;62.70;;;;;;5110539;28;20587;-79
2022/04/06 00:23:51;;;;;;;0.00;0.00;;;12.40;64.60;;;;;;5102859;28;20020;-79
2022/04/06 00:26:17;;;;;;;0.00;0.00;;;12.50;64.10;;;;;;5099330;28;20032;-79
2022/04/06 00:28:43;;;;;;;0.00;0.00;;;12.30;64.90;;;;;;5107182;28;20098;-79
2022/04/06 00:31:09;;;;;;;0.00;0.00;;;12.30;65.10;;;;;;5084456;28;20059;-78
2022/04/06 00:33:35;;;;;;;0.00;0.00;;;12.30;65.70;;;;;;5111530;28;20012;-78
2022/04/06 00:36:02;;;;;;;0.00;0.00;;;12.30;65.10;;;;;;5108298;28;20043;-79
2022/04/06 00:38:28;;;;;;;0.00;0.00;;;12.60;62.10;;;;;;5100565;28;20432;-79
2022/04/06 00:40:54;;;;;;;0.00;0.00;;;12.60;67.80;;;;;;5077690;28;20474;-78
2022/04/06 00:43:20;;;;;;;0.00;0.00;;;12.60;63.30;;;;;;5103996;28;20020;-78
2022/04/06 00:45:46;;;;;;;0.00;0.00;;;12.50;62.00;;;;;;5101870;28;20040;-80
2022/04/06 00:48:12;;;;;;;0.00;0.00;;;12.70;59.20;;;;;;5076982;28;20073;-78
2022/04/06 00:50:39;;;;;;;0.00;0.00;;;12.80;59.00;;;;;;5113566;28;20020;-79
2022/04/06 00:53:06;;;;;;;0.00;0.00;;;12.90;61.10;;;;;;5083382;28;20050;-75
2022/04/06 00:55:35;;;;;;;0.00;0.00;;;12.80;61.90;;;;;;5075265;28;20382;-78
2022/04/06 00:58:03;;;;;;;0.00;0.00;;;12.80;61.10;;;;;;5093927;28;20497;-79
2022/04/06 01:00:30;;;;;;;0.00;0.00;;;13.00;59.80;;;;;;5101992;28;20019;-80
2022/04/06 01:02:56;;;;;;;0.00;0.00;;;13.10;59.20;;;;;;5080285;28;20071;-80
2022/04/06 01:05:25;;;;;;;0.20;0.20;;;13.10;57.80;;;;;;5105675;28;20030;-78
2022/04/06 01:07:54;;;;;;;0.00;0.00;;;13.10;58.50;;;;;;5103973;28;20066;-78
2022/04/06 01:10:21;;;;;;;0.17;0.17;;;13.50;58.30;;;;;;5085215;28;20027;-78
2022/04/06 01:12:48;;;;;;;0.00;0.00;;;13.30;57.80;;;;;;5101350;28;20031;-80
2022/04/06 01:15:16;;;;;;;0.00;0.00;;;13.50;57.30;;;;;;5108030;28;20027;-77
2022/04/06 01:17:42;;;;;;;0.00;0.00;;;13.60;58.30;;;;;;5099318;28;20019;-78
2022/04/06 01:20:11;;;;;;;0.00;0.00;;;13.80;58.90;;;;;;5101377;28;20024;-78
2022/04/06 01:22:38;;;;;;;0.00;0.00;;;14.20;58.10;;;;;;5102161;28;20035;-80
2022/04/06 01:25:05;;;;;;;0.00;0.00;;;14.70;57.90;;;;;;5107903;28;20027;-78
2022/04/06 01:27:32;;;;;;;0.00;0.00;;;15.30;56.00;;;;;;5083614;28;20078;-79
2022/04/06 01:29:58;;;;;;;1.58;1.48;;;15.90;55.70;;;;;;5123823;28;20016;-78
2022/04/06 01:32:27;;;;;;;3.63;0.65;;;16.40;52.90;;;;;;5111809;28;20040;-80
2022/04/06 01:34:54;;;;;;;0.00;0.00;;;16.90;49.10;;;;;;5102658;28;20130;-78
2022/04/06 01:37:21;;;;;;;0.00;0.00;;;17.50;51.80;;;;;;5079764;28;20024;-80
2022/04/06 01:39:48;;;;;;;0.38;0.38;;;18.10;50.40;;;;;;5103189;28;20110;-80
2022/04/06 01:42:17;;;;;;;0.00;0.00;;;19.20;47.60;;;;;;5076760;28;20362;-80
2022/04/06 01:44:44;;;;;;;0.00;0.00;;;20.10;47.30;;;;;;5093533;28;20085;-79
2022/04/06 01:47:11;;;;;;;0.45;0.45;;;21.00;45.70;;;;;;5100835;28;20485;-80
2022/04/06 01:52:23;;;;;;;0.00;0.00;;;21.40;41.00;;;;;;5108116;28;20035;-78
2022/04/06 01:54:56;;;;;;;2.42;2.22;;;21.80;44.20;;;;;;5105941;28;20027;-78
2022/04/06 01:57:23;;;;;;;0.00;0.00;;;22.00;42.80;;;;;;5086672;28;20019;-79
2022/04/06 01:59:50;;;;;;;0.00;0.00;;;23.30;41.00;;;;;;5104380;28;20028;-78
2022/04/06 02:02:18;;;;;;;0.10;0.10;;;23.50;37.50;;;;;;5104429;28;20118;-82
2022/04/06 02:04:44;;;;;;;0.98;0.98;;;24.60;37.40;;;;;;5101262;28;20032;-80
2022/04/06 02:07:11;;;;;;;0.00;0.00;;;25.20;35.40;;;;;;5103670;28;20023;-78
2022/04/06 02:09:41;;;;;;;0.00;0.00;;;25.50;32.70;;;;;;5081204;28;20035;-79
2022/04/06 02:12:08;;;;;;;0.15;0.15;;;26.30;32.70;;;;;;5099132;28;20060;-78
2022/04/06 02:14:35;;;;;;;0.00;0.00;;;26.60;30.20;;;;;;5076015;28;20028;-80
2022/04/06 02:17:07;;;;;;;0.00;0.00;;;26.80;30.50;;;;;;5077887;28;20024;-78
2022/04/06 02:19:35;;;;;;;0.00;0.00;;;27.90;30.50;;;;;;5090051;28;20522;-81
2022/04/06 02:22:06;;;;;;;0.00;0.00;;;28.20;28.10;;;;;;5097894;28;20085;-83
2022/04/06 02:24:33;;;;;;;0.00;0.00;;;28.70;26.70;;;;;;5081005;28;20490;-79
2022/04/06 02:26:59;;;;;;;0.17;0.17;;;29.00;25.90;;;;;;5094906;28;20498;-77
2022/04/06 02:29:25;;;;;;;0.28;0.28;;;29.40;25.20;;;;;;5105754;28;20095;-79
2022/04/06 02:31:52;;;;;;;0.08;0.08;;;29.90;25.20;;;;;;5098506;28;20052;-83
2022/04/06 02:34:19;;;;;;;0.38;0.38;;;29.00;24.00;;;;;;5105552;28;20020;-78
2022/04/06 02:36:45;;;;;;;0.00;0.00;;;28.50;24.00;;;;;;5083830;28;20059;-79
2022/04/06 02:39:11;;;;;;;0.35;0.35;;;28.50;25.20;;;;;;5101775;28;20023;-79
2022/04/06 02:41:37;;;;;;;0.00;0.00;;;28.70;24.60;;;;;;5108382;28;20558;-81
2022/04/06 02:44:03;;;;;;;0.00;0.00;;;29.00;24.50;;;;;;5104035;28;20027;-81
2022/04/06 02:46:30;;;;;;;0.00;0.00;;;28.70;24.60;;;;;;5097036;28;20505;-81
2022/04/06 02:48:56;;;;;;;0.00;0.00;;;28.40;24.20;;;;;;5095834;28;20024;-82
2022/04/06 02:51:23;;;;;;;5.00;4.60;;;28.00;23.40;;;;;;5098138;28;20024;-81
2022/04/06 02:53:49;;;;;;;1.02;0.85;;;26.20;25.00;;;;;;5099800;28;20091;-82
2022/04/06 02:56:18;;;;;;;1.63;1.52;;;25.10;25.70;;;;;;5099283;28;20362;-79
2022/04/06 02:58:46;;;;;;;2.33;1.88;;;24.70;26.20;;;;;;5082414;28;20095;-82
2022/04/06 03:01:16;;;;;;;1.42;1.20;;;24.00;27.50;;;;;;5088919;28;20114;-81
2022/04/06 03:03:42;;;;;;;0.93;0.65;;;23.50;28.90;;;;;;5081562;28;20036;-79
2022/04/06 03:06:09;;;;;;;4.80;2.25;;;23.10;30.00;;;;;;5077492;28;20039;-80
2022/04/06 03:08:35;;;;;;;3.03;1.73;;;22.80;30.90;;;;;;5075352;28;20028;-79
2022/04/06 03:11:01;;;;;;;8.85;5.90;;;22.80;31.10;;;;;;5066607;28;20030;-77
2022/04/06 03:13:27;;;;;;;0.20;0.20;;;22.70;32.30;;;;;;5087384;28;20502;-78
2022/04/06 03:15:53;;;;;;;3.55;3.25;;;22.60;33.10;;;;;;5081052;28;20024;-78
2022/04/06 03:18:20;;;;;;;0.13;0.08;;;22.70;30.70;;;;;;5083707;28;20119;-81
2022/04/06 03:20:46;;;;;;;0.98;0.55;;;22.80;30.30;;;;;;5085189;28;20013;-79
2022/04/06 03:23:15;;;;;;;0.10;0.10;;;23.00;30.80;;;;;;5083119;28;20028;-82
2022/04/06 03:25:44;;;;;;;0.63;0.47;;;23.30;28.40;;;;;;5091677;28;20057;-79
2022/04/06 03:28:10;;;;;;;0.52;0.20;;;23.50;27.20;;;;;;5071241;28;20375;-82
2022/04/06 03:30:37;;;;;;;7.18;1.33;;;23.60;26.30;;;;;;5085445;28;20160;-83
2022/04/06 03:33:04;;;;;;;0.03;0.00;;;23.50;24.70;;;;;;5084100;28;20024;-80
2022/04/06 03:35:30;;;;;;;0.00;0.00;;;23.50;25.20;;;;;;5068702;28;20024;-80
2022/04/06 03:37:56;;;;;;;0.00;0.00;;;23.60;25.20;;;;;;5091770;28;20027;-79
2022/04/06 03:40:26;;;;;;;0.10;0.10;;;23.80;24.80;;;;;;5087027;28;20150;-83
2022/04/06 03:42:52;;;;;;;0.00;0.00;;;24.00;24.60;;;;;;5081389;28;20028;-82
2022/04/06 03:45:21;;;;;;;2.28;0.85;;;24.20;25.10;;;;;;5086089;28;20051;-81
2022/04/06 03:47:48;;;;;;;4.90;2.08;;;24.30;25.70;;;;;;5058285;28;20117;-82
2022/04/06 03:50:14;;;;;;;1.33;1.15;;;24.30;25.90;;;;;;5060459;28;20657;-82
2022/04/06 03:52:41;;;;;;;0.90;0.60;;;24.20;26.20;;;;;;5077632;28;20024;-79
2022/04/06 03:55:08;;;;;;;0.95;0.90;;;24.10;25.90;;;;;;5060064;28;20032;-82
2022/04/06 03:57:38;;;;;;;11.55;4.82;;;24.20;27.10;;;;;;5078360;28;20025;-82
2022/04/06 04:00:07;;;;;;;3.58;2.15;;;24.10;28.00;;;;;;5063629;28;20035;-80
2022/04/06 04:02:34;;;;;;;8.10;2.92;;;24.10;27.70;;;;;;5081597;28;20098;-79
2022/04/06 04:05:00;;;;;;;1.95;0.82;;;24.10;27.00;;;;;;5080747;28;20043;-81
2022/04/06 04:07:27;;;;;;;0.57;0.55;;;23.90;27.70;;;;;;5080206;28;20036;-80
2022/04/06 04:09:53;;;;;;;4.25;1.35;;;24.00;28.50;;;;;;5088498;28;20032;-77
2022/04/06 04:12:19;;;;;;;0.65;0.47;;;24.00;29.50;;;;;;5080781;28;20029;-83
2022/04/06 04:15:15;;;;;;;0.00;0.00;;;24.00;30.00;;;;;;5080204;28;20024;-81
2022/04/06 04:17:41;;;;;;;0.00;0.00;;;24.10;29.60;;;;;;5079961;28;20025;-81
2022/04/06 04:20:08;;;;;;;0.17;0.17;;;24.20;28.90;;;;;;5059849;28;20111;-82
2022/04/06 04:22:34;;;;;;;1.17;0.40;;;24.30;27.80;;;;;;5081714;28;20482;-82
2022/04/06 04:25:03;;;;;;;6.40;1.77;;;24.40;27.00;;;;;;5069016;28;20027;-82
2022/04/06 04:27:29;;;;;;;0.45;0.13;;;24.40;27.20;;;;;;5067047;28;20028;-81
2022/04/06 04:29:57;;;;;;;1.92;1.42;;;24.30;27.70;;;;;;5063688;28;20077;-85
2022/04/06 04:32:23;;;;;;;4.22;1.52;;;24.20;27.80;;;;;;5059646;28;20115;-82
2022/04/06 04:34:49;;;;;;;2.28;0.93;;;24.20;27.50;;;;;;5077272;28;20029;-80
2022/04/06 04:37:15;;;;;;;12.57;0.40;;;24.40;27.20;;;;;;5064383;28;20032;-82
2022/04/06 04:39:41;;;;;;;0.30;0.28;;;24.60;27.70;;;;;;5060964;28;20044;-80
2022/04/06 04:42:08;;;;;;;2.30;2.08;;;24.80;27.50;;;;;;5077389;28;20070;-80
2022/04/06 04:44:34;;;;;;;8.60;1.13;;;25.00;27.50;;;;;;5077146;28;20039;-83
2022/04/06 04:47:00;;;;;;;0.13;0.13;;;25.00;26.00;;;;;;5078814;28;20410;-81
2022/04/06 04:49:26;;;;;;;2.55;1.85;;;24.80;25.40;;;;;;5074984;28;20033;-80
2022/04/06 04:51:58;;;;;;;2.65;1.20;;;24.90;25.50;;;;;;5056460;28;20024;-80
2022/04/06 04:54:24;;;;;;;0.47;0.20;;;25.00;25.30;;;;;;5075530;28;20031;-82
2022/04/06 04:56:52;;;;;;;0.00;0.00;;;24.90;25.50;;;;;;5075010;28;20028;-83
2022/04/06 04:59:18;;;;;;;0.70;0.70;;;25.10;26.20;;;;;;5076919;28;20031;-83
2022/04/06 05:01:48;;;;;;;5.07;1.95;;;25.30;26.20;;;;;;5051905;28;20025;-82
2022/04/06 05:04:22;;;;;;;0.00;0.00;;;25.60;26.30;;;;;;5055215;28;20134;-81
2022/04/06 05:06:48;;;;;;;11.20;9.73;;;25.60;26.50;;;;;;5041989;28;20433;-79
2022/04/06 05:09:15;;;;;;;0.60;0.32;;;25.60;26.30;;;;;;5039356;28;20037;-80
2022/04/06 05:11:50;;;;;;;0.93;0.93;;;25.80;25.70;;;;;;5036841;28;20036;-80
2022/04/06 05:14:17;;;;;;;0.60;0.60;;;25.80;26.70;;;;;;5055113;28;20020;-82
2022/04/06 05:16:43;;;;;;;0.65;0.43;;;25.80;25.30;;;;;;5058014;28;20021;-81
2022/04/06 05:19:09;;;;;;;2.35;0.98;;;26.00;25.40;;;;;;5058537;28;20028;-81
2022/04/06 05:21:35;;;;;;;1.77;0.70;;;26.20;25.20;;;;;;5051602;28;20043;-82
2022/04/06 05:24:04;;;;;;;2.90;0.88;;;26.30;24.90;;;;;;5045825;28;20058;-83
2022/04/06 05:26:31;;;;;;;0.00;0.00;;;26.30;23.50;;;;;;5046780;28;20033;-82
2022/04/06 05:28:57;;;;;;;3.20;1.10;;;26.10;23.70;;;;;;5071425;28;20031;-82
2022/04/06 05:31:23;;;;;;;6.68;0.90;;;26.00;23.80;;;;;;5047156;28;20127;-81
2022/04/06 05:33:49;;;;;;;1.75;0.52;;;26.10;24.00;;;;;;5060322;28;20021;-83
2022/04/06 05:36:16;;;;;;;1.20;1.20;;;26.30;23.70;;;;;;5048876;28;20063;-80
2022/04/06 05:38:42;;;;;;;0.00;0.00;;;26.30;24.00;;;;;;5050332;28;20431;-84
2022/04/06 05:41:08;;;;;;;1.35;0.85;;;26.40;25.10;;;;;;5057168;28;20025;-84
2022/04/06 05:43:37;;;;;;;0.10;0.10;;;26.40;24.50;;;;;;5041204;28;20440;-84
2022/04/06 05:46:03;;;;;;;3.95;1.77;;;26.40;24.90;;;;;;5057219;28;20016;-83
2022/04/06 05:48:29;;;;;;;1.52;1.42;;;26.40;23.80;;;;;;5045294;28;20025;-83
2022/04/06 05:50:55;;;;;;;0.10;0.10;;;26.50;24.00;;;;;;5052132;28;20036;-82
2022/04/06 05:53:22;;;;;;;0.10;0.10;;;26.70;22.90;;;;;;5045683;28;20060;-83
2022/04/06 05:56:06;;;;;;;0.80;0.10;;;27.00;22.80;;;;;;5046603;28;20458;-83
2022/04/06 05:58:42;;;;;;;3.47;1.75;;;27.00;23.70;;;;;;5027289;28;20040;-81
2022/04/06 06:01:09;;;;;;;4.78;2.05;;;27.10;23.20;;;;;;5047468;28;20388;-82
2022/04/06 06:03:35;;;;;;;4.07;1.08;;;27.20;23.00;;;;;;5053055;28;20053;-84
2022/04/06 06:06:04;;;;;;;1.08;0.98;;;27.20;22.80;;;;;;5041863;28;20028;-81
2022/04/06 06:08:30;;;;;;;14.13;2.65;;;27.30;22.90;;;;;;5044332;28;20033;-82
2022/04/06 06:10:56;;;;;;;2.95;1.25;;;27.40;23.50;;;;;;5064959;28;20111;-82
2022/04/06 06:13:23;;;;;;;5.30;2.22;;;27.40;22.60;;;;;;5058396;28;20048;-80
2022/04/06 06:15:49;;;;;;;2.13;2.03;;;27.30;22.40;;;;;;5045675;28;20016;-83
2022/04/06 06:18:15;;;;;;;0.45;0.45;;;27.50;22.90;;;;;;5059868;28;20100;-81
2022/04/06 06:20:43;;;;;;;4.22;4.03;;;27.50;22.30;;;;;;5041452;28;20056;-83
2022/04/06 06:23:15;;;;;;;0.03;0.03;;;27.40;23.40;;;;;;5066324;28;20021;-81
2022/04/06 06:25:41;;;;;;;2.33;2.22;;;27.70;22.80;;;;;;5048876;28;20052;-84
2022/04/06 06:28:10;;;;;;;6.22;0.82;;;27.80;21.50;;;;;;5058945;28;20029;-81
2022/04/06 06:30:36;;;;;;;0.30;0.10;;;27.90;21.60;;;;;;5037037;28;20517;-82
2022/04/06 06:33:08;;;;;;;3.97;1.85;;;28.00;21.90;;;;;;5063771;28;20483;-81
2022/04/06 06:35:38;;;;;;;0.00;0.00;;;27.90;20.30;;;;;;5059807;28;20021;-82
2022/04/06 06:38:07;;;;;;;1.00;0.82;;;27.90;21.20;;;;;;5060117;28;21220;-82
2022/04/06 06:40:33;;;;;;;5.97;1.23;;;28.20;21.00;;;;;;5050981;28;20052;-82
2022/04/06 06:42:59;;;;;;;0.00;0.00;;;28.10;20.90;;;;;;5082635;28;20215;-81
2022/04/06 06:45:26;;;;;;;0.15;0.13;;;28.00;21.40;;;;;;5069117;28;20025;-79
2022/04/06 06:47:54;;;;;;;0.95;0.95;;;28.00;22.10;;;;;;5049866;28;20035;-81
2022/04/06 06:50:24;;;;;;;0.00;0.00;;;28.00;22.10;;;;;;5063321;28;20017;-82
2022/04/06 06:52:53;;;;;;;0.68;0.20;;;28.00;21.70;;;;;;5045921;28;20031;-82
2022/04/06 06:55:22;;;;;;;3.30;2.30;;;28.00;21.60;;;;;;5060142;28;20039;-81
2022/04/06 06:57:54;;;;;;;2.33;1.00;;;28.10;21.70;;;;;;5064972;28;20478;-82
2022/04/06 07:00:20;;;;;;;11.88;4.05;;;28.20;21.30;;;;;;5059367;28;20049;-81
2022/04/06 07:02:48;;;;;;;0.10;0.10;;;28.30;21.80;;;;;;5049278;28;20087;-85
2022/04/06 07:05:14;;;;;;;2.35;2.15;;;28.30;21.30;;;;;;5059335;28;20776;-81
2022/04/06 07:07:55;;;;;;;13.30;1.23;;;28.40;21.40;;;;;;5070554;28;20031;-81
2022/04/06 07:10:28;;;;;;;0.35;0.30;;;28.40;21.30;;;;;;5082217;28;20046;-81
2022/04/06 07:12:58;;;;;;;6.13;0.75;;;28.50;20.20;;;;;;5097440;28;20024;-81
2022/04/06 07:15:24;;;;;;;1.02;0.70;;;28.50;19.50;;;;;;5097569;28;20032;-82
2022/04/06 07:18:12;;;;;;;3.40;1.75;;;28.50;19.90;;;;;;5081432;28;20454;-81
2022/04/06 07:20:39;;;;;;;0.05;0.05;;;28.60;19.80;;;;;;5064240;28;20036;-80
2022/04/06 07:23:07;;;;;;;62.08;52.97;;;28.60;19.30;;;;;;5099883;28;20031;-83
2022/04/06 07:25:34;;;;;;;0.70;0.17;;;28.50;20.40;;;;;;5079211;28;20164;-82
2022/04/06 07:28:15;;;;;;;2.53;1.15;;;28.80;20.50;;;;;;5097168;28;20042;-81
2022/04/06 07:30:44;;;;;;;0.00;0.00;;;29.10;19.00;;;;;;5093902;28;20093;-81
2022/04/06 07:33:14;;;;;;;0.00;0.00;;;28.90;19.60;;;;;;5080132;28;20081;-82
2022/04/06 07:35:41;;;;;;;0.00;0.00;;;29.00;19.70;;;;;;5101508;28;20086;-82
2022/04/06 07:38:16;;;;;;;0.00;0.00;;;29.10;20.50;;;;;;5081200;28;20107;-82
2022/04/06 07:40:46;;;;;;;0.85;0.63;;;29.10;22.50;;;;;;5104313;28;20031;-83
2022/04/06 07:43:12;;;;;;;0.30;0.00;;;29.00;20.00;;;;;;5100760;28;20073;-83
2022/04/06 07:45:40;;;;;;;0.00;0.00;;;29.20;18.70;;;;;;5083500;28;20077;-84
2022/04/06 07:48:06;;;;;;;0.00;0.00;;;29.20;19.00;;;;;;5080518;28;20052;-80
2022/04/06 07:50:32;;;;;;;0.00;0.00;;;29.10;19.20;;;;;;5083331;28;20145;-80
2022/04/06 07:53:01;;;;;;;0.30;0.25;;;29.00;19.80;;;;;;5098878;28;20024;-81
2022/04/06 07:55:29;;;;;;;0.00;0.00;;;29.20;18.40;;;;;;5083687;28;20113;-83
2022/04/06 07:57:58;;;;;;;0.00;0.00;;;29.10;18.50;;;;;;5079311;28;20540;-82
2022/04/06 08:00:33;;;;;;;0.00;0.00;;;29.10;17.80;;;;;;5082199;28;20020;-83
2022/04/06 08:03:02;;;;;;;0.00;0.00;;;29.00;18.20;;;;;;5102869;28;20114;-83
2022/04/06 08:05:28;;;;;;;3.38;0.30;;;29.20;18.50;;;;;;5095852;28;20524;-82
2022/04/06 08:07:58;;;;;;;3.08;0.28;;;29.20;18.40;;;;;;5085765;28;20027;-82
2022/04/06 08:10:24;;;;;;;3.60;0.20;;;29.40;18.10;;;;;;5085002;28;20031;-84
2022/04/06 08:12:50;;;;;;;0.00;0.00;;;29.30;18.80;;;;;;5105621;28;20019;-83
2022/04/06 08:15:27;;;;;;;0.22;0.15;;;29.20;19.20;;;;;;5091544;28;20027;-81
2022/04/06 08:18:13;;;;;;;0.93;0.10;;;29.20;18.30;;;;;;5083333;28;20469;-81
2022/04/06 08:20:41;;;;;;;0.00;0.00;;;29.20;18.00;;;;;;5075639;28;20125;-83
2022/04/06 08:23:07;;;;;;;0.00;0.00;;;29.40;17.70;;;;;;5077224;28;20054;-84
2022/04/06 08:25:39;;;;;;;0.00;0.00;;;29.50;17.70;;;;;;5099350;28;20035;-82
2022/04/06 08:28:07;;;;;;;0.00;0.00;;;29.40;18.10;;;;;;5100508;28;20036;-83
2022/04/06 08:30:40;;;;;;;2.17;1.98;;;29.50;17.80;;;;;;5081156;28;20032;-81
2022/04/06 08:33:09;;;;;;;0.00;0.00;;;29.60;17.90;;;;;;5077886;28;20024;-82
2022/04/06 08:35:36;;;;;;;0.10;0.10;;;29.60;17.70;;;;;;5077582;28;20075;-81
2022/04/06 08:38:22;;;;;;;0.98;0.35;;;29.50;18.80;;;;;;5096481;28;20024;-83
2022/04/06 08:40:49;;;;;;;0.00;0.00;;;29.70;18.70;;;;;;5082423;28;20015;-83
2022/04/06 08:43:19;;;;;;;0.00;0.00;;;29.60;18.10;;;;;;5080139;28;20060;-83
2022/04/06 08:45:45;;;;;;;0.28;0.25;;;29.60;18.40;;;;;;5077114;28;20573;-82
2022/04/06 08:48:12;;;;;;;1.45;1.40;;;29.80;19.10;;;;;;5095553;28;20533;-81
2022/04/06 08:50:39;;;;;;;1.55;0.90;;;29.90;18.60;;;;;;5077905;28;20108;-83
2022/04/06 08:53:08;;;;;;;0.60;0.13;;;29.60;18.70;;;;;;5094071;28;20130;-85
2022/04/06 08:56:00;;;;;;;0.00;0.00;;;29.60;18.40;;;;;;5080388;28;20026;-84
2022/04/06 08:58:26;;;;;;;0.22;0.22;;;29.50;18.10;;;;;;5094743;28;20057;-82
2022/04/06 09:00:52;;;;;;;0.08;0.08;;;29.50;18.40;;;;;;5095587;28;20046;-80
2022/04/06 09:03:22;;;;;;;1.77;1.67;;;29.60;19.00;;;;;;5096978;28;20451;-83
2022/04/06 09:06:06;;;;;;;0.45;0.38;;;29.60;19.20;;;;;;5084664;28;20034;-83
2022/04/06 09:08:40;;;;;;;0.10;0.10;;;29.70;18.30;;;;;;5077213;28;20027;-79
2022/04/06 09:11:18;;;;;;;0.00;0.00;;;29.60;18.30;;;;;;5098097;28;20089;-84
2022/04/06 09:13:46;;;;;;;4.20;3.80;;;29.60;18.30;;;;;;5095283;28;20028;-84
2022/04/06 09:16:15;;;;;;;0.00;0.00;;;29.60;19.00;;;;;;5094768;28;20054;-82
2022/04/06 09:18:48;;;;;;;0.00;0.00;;;29.70;18.40;;;;;;5106293;28;20024;-82
2022/04/06 09:21:18;;;;;;;0.45;0.40;;;29.80;18.80;;;;;;5112495;28;20057;-79
2022/04/06 09:23:48;;;;;;;0.00;0.00;;;29.70;18.50;;;;;;5085854;28;20038;-81
2022/04/06 09:26:26;;;;;;;0.08;0.03;;;29.70;18.90;;;;;;5097707;28;20020;-81
2022/04/06 09:28:52;;;;;;;0.00;0.00;;;29.60;19.30;;;;;;5079429;28;20106;-83
2022/04/06 09:31:38;;;;;;;2.45;1.45;;;29.60;18.90;;;;;;5082977;28;20031;-83
2022/04/06 09:34:12;;;;;;;0.88;0.88;;;29.50;18.30;;;;;;5103519;28;20035;-84
2022/04/06 09:36:46;;;;;;;0.10;0.10;;;29.40;18.60;;;;;;5102354;28;20027;-82
2022/04/06 09:39:53;;;;;;;0.85;0.60;;;29.30;18.00;;;;;;5103826;28;20712;-86
2022/04/06 09:42:46;;;;;;;0.00;0.00;;;29.50;18.50;;;;;;5101218;28;20383;-87
2022/04/06 09:48:24;;;;;;;1.92;0.60;;;29.60;18.70;;;;;;5101825;28;20034;-85
2022/04/06 09:50:56;;;;;;;1.55;1.45;;;29.50;18.60;;;;;;5083288;28;20031;-83
2022/04/06 09:53:30;;;;;;;2.53;1.40;;;29.40;18.70;;;;;;5083395;28;20024;-87
2022/04/06 09:55:57;;;;;;;0.00;0.00;;;29.20;19.10;;;;;;5104679;28;20034;-86
2022/04/06 09:58:24;;;;;;;0.00;0.00;;;29.20;18.40;;;;;;5085053;28;20530;-86
2022/04/06 10:00:52;;;;;;;1.38;1.38;;;29.20;18.50;;;;;;5110029;28;20031;-84
2022/04/06 10:03:21;;;;;;;1.40;1.30;;;29.30;19.40;;;;;;5101658;28;20055;-81
2022/04/06 10:05:57;;;;;;;10.15;2.58;;;29.30;19.00;;;;;;5083419;28;20032;-83
2022/04/06 10:08:24;;;;;;;2.08;1.17;;;29.30;18.90;;;;;;5081472;28;20028;-83
2022/04/06 10:10:58;;;;;;;3.13;1.88;;;29.50;18.90;;;;;;5087792;28;20049;-83
2022/04/06 10:13:25;;;;;;;11.18;10.52;;;29.50;18.90;;;;;;5099445;28;20024;-86
2022/04/06 10:15:52;;;;;;;1.05;0.82;;;29.40;19.20;;;;;;5085427;28;20035;-85
2022/04/06 10:18:31;;;;;;;0.00;0.00;;;29.20;19.40;;;;;;5095977;28;20027;-85
2022/04/06 10:21:28;;;;;;;1.85;1.38;;;29.20;18.60;;;;;;5098023;28;20173;-82
2022/04/06 10:24:59;;;;;;;;;;;;;;;;;;;;;
2022/04/06 10:28:36;;;;;;;;;;;;;;;;;;;;;
2022/04/06 10:31:59;;;;;;;;;;;;;;;;;;;;;
2022/04/06 10:35:15;;;;;;;;;;;;;;;;;;;;;
2022/04/06 10:45:29;;;;;;;0.60;0.60;;;28.70;20.40;;;;;;4940511;28;20034;-83
2022/04/06 10:48:19;;;;;;;3.63;0.63;;;28.80;19.50;;;;;;4957252;28;20030;-83
2022/04/06 10:50:47;;;;;;;0.30;0.30;;;28.80;19.70;;;;;;5043595;28;20062;-87
2022/04/06 10:53:22;;;;;;;2.90;2.08;;;28.70;19.50;;;;;;5078926;28;20036;-85
2022/04/06 10:56:06;;;;;;;0.00;0.00;;;28.80;20.00;;;;;;5104186;28;20024;-86
2022/04/06 10:59:00;;;;;;;3.20;0.68;;;28.80;20.00;;;;;;5104718;28;20477;-83
2022/04/06 11:01:34;;;;;;;3.30;1.20;;;28.80;20.80;;;;;;5099595;28;20090;-86
2022/04/06 11:04:04;;;;;;;4.90;2.30;;;28.70;21.00;;;;;;5082059;28;20097;-83
2022/04/06 11:06:49;;;;;;;1.40;1.30;;;28.70;21.00;;;;;;5102378;28;20035;-83
2022/04/06 11:12:57;;;;;;;1.75;1.65;;;28.70;21.00;;;;;;5098383;28;20374;-85
2022/04/06 11:15:37;;;;;;;0.43;0.43;;;28.70;21.00;;;;;;5081852;28;20135;-82
2022/04/06 11:18:23;;;;;;;0.65;0.65;;;28.60;21.40;;;;;;5081632;28;20107;-84
2022/04/06 11:21:03;;;;;;;4.85;4.63;;;28.50;21.40;;;;;;5097734;28;20023;-81
2022/04/06 11:23:38;;;;;;;1.00;0.47;;;28.60;21.50;;;;;;5098581;28;20024;-82
2022/04/06 11:26:04;;;;;;;3.90;1.55;;;28.60;21.00;;;;;;5096502;28;20036;-81
2022/04/06 11:28:38;;;;;;;0.75;0.75;;;28.50;20.60;;;;;;5097826;28;20489;-82
2022/04/06 11:31:12;;;;;;;0.40;0.20;;;28.50;20.70;;;;;;5081388;28;20457;-84
2022/04/06 11:33:42;;;;;;;0.10;0.10;;;28.40;20.00;;;;;;5081558;28;20496;-85
2022/04/06 11:36:19;;;;;;;0.00;0.00;;;28.40;20.30;;;;;;5083563;28;20036;-83
2022/04/06 11:38:51;;;;;;;0.17;0.13;;;28.40;19.90;;;;;;5102331;28;20024;-85
2022/04/06 11:41:19;;;;;;;0.63;0.63;;;28.20;20.40;;;;;;5087419;28;20490;-84
2022/04/06 11:43:50;;;;;;;0.00;0.00;;;28.20;20.30;;;;;;5102944;28;20460;-82
2022/04/06 11:46:16;;;;;;;3.25;2.50;;;28.10;20.30;;;;;;5102688;28;20058;-79
2022/04/06 11:48:45;;;;;;;3.83;3.35;;;28.10;20.30;;;;;;5085067;28;20155;-82
2022/04/06 11:51:11;;;;;;;0.00;0.00;;;28.10;20.80;;;;;;5104193;28;20141;-81
2022/04/06 11:53:37;;;;;;;0.00;0.00;;;28.00;21.50;;;;;;5107150;28;20091;-82
2022/04/06 11:56:04;;;;;;;0.65;0.65;;;28.00;21.70;;;;;;5101228;28;20522;-80
2022/04/06 11:58:47;;;;;;;0.00;0.00;;;28.00;22.00;;;;;;5101128;28;20032;-80
2022/04/06 12:01:21;;;;;;;0.00;0.00;;;27.90;22.10;;;;;;5082411;28;20020;-81
2022/04/06 12:03:50;;;;;;;0.00;0.00;;;28.00;21.90;;;;;;5106691;28;20087;-80
2022/04/06 12:06:16;;;;;;;0.08;0.08;;;27.90;22.30;;;;;;5115686;28;20031;-82
2022/04/06 12:08:46;;;;;;;0.70;0.60;;;27.90;20.90;;;;;;5084289;28;20030;-80
2022/04/06 12:11:22;;;;;;;0.00;0.00;;;27.80;20.70;;;;;;5101109;28;20027;-82
2022/04/06 12:13:49;;;;;;;0.00;0.00;;;27.80;20.80;;;;;;5096573;28;20484;-81
2022/04/06 12:16:16;;;;;;;0.00;0.00;;;27.70;20.70;;;;;;5075894;28;20024;-83
2022/04/06 12:18:42;;;;;;;0.00;0.00;;;27.70;21.20;;;;;;5107421;28;20099;-84
2022/04/06 12:21:26;;;;;;;2.72;1.50;;;27.70;21.00;;;;;;5099369;28;20028;-84
2022/04/06 12:23:56;;;;;;;0.00;0.00;;;27.70;21.40;;;;;;5080565;28;20112;-84
2022/04/06 12:26:24;;;;;;;0.00;0.00;;;27.60;21.20;;;;;;5084610;28;20381;-81
2022/04/06 12:28:58;;;;;;;0.00;0.00;;;27.60;21.20;;;;;;5104827;28;20031;-83
2022/04/06 12:31:34;;;;;;;0.00;0.00;;;27.60;21.50;;;;;;5080431;28;20077;-81
2022/04/06 12:34:01;;;;;;;0.00;0.00;;;27.60;22.10;;;;;;5105346;28;20424;-82
2022/04/06 12:36:30;;;;;;;0.00;0.00;;;27.60;22.70;;;;;;5102954;28;20369;-81
2022/04/06 12:39:15;;;;;;;0.00;0.00;;;27.50;22.30;;;;;;5105111;28;20024;-82
2022/04/06 12:41:53;;;;;;;2.40;2.33;;;27.50;22.80;;;;;;5097836;28;20027;-81
2022/04/06 12:44:20;;;;;;;0.00;0.00;;;27.40;23.00;;;;;;5100404;28;20024;-82
2022/04/06 12:46:53;;;;;;;0.00;0.00;;;27.30;23.50;;;;;;5098211;28;20374;-81
2022/04/06 12:49:31;;;;;;;0.25;0.25;;;27.30;23.70;;;;;;5100175;28;20457;-83
2022/04/06 12:52:12;;;;;;;0.00;0.00;;;27.20;24.10;;;;;;5098784;28;20123;-81
2022/04/06 12:54:39;;;;;;;0.00;0.00;;;27.10;24.10;;;;;;5102436;28;20486;-84
2022/04/06 12:57:28;;;;;;;0.00;0.00;;;27.10;24.20;;;;;;5083137;28;20047;-84
2022/04/06 12:59:59;;;;;;;0.00;0.00;;;27.00;24.50;;;;;;5095036;28;20023;-83
2022/04/06 13:02:29;;;;;;;0.20;0.20;;;26.90;24.80;;;;;;5078750;28;20201;-82
2022/04/06 13:04:59;;;;;;;0.08;0.08;;;26.80;25.10;;;;;;5105652;28;20077;-81
2022/04/06 13:07:27;;;;;;;0.00;0.00;;;26.60;25.30;;;;;;5100087;28;20562;-82
2022/04/06 13:09:58;;;;;;;0.00;0.00;;;26.60;25.70;;;;;;5081626;28;20040;-79
2022/04/06 13:12:30;;;;;;;0.00;0.00;;;26.40;26.20;;;;;;5090797;28;20418;-79
2022/04/06 13:14:59;;;;;;;1.20;1.13;;;26.30;26.10;;;;;;5104821;28;20031;-83
2022/04/06 13:17:25;;;;;;;0.00;0.00;;;26.20;26.30;;;;;;5099887;28;20031;-81
2022/04/06 13:19:52;;;;;;;0.00;0.00;;;26.20;25.30;;;;;;5083196;28;20026;-80
2022/04/06 13:22:18;;;;;;;0.43;0.43;;;26.00;25.40;;;;;;5102027;28;20494;-82
2022/04/06 13:24:45;;;;;;;0.00;0.00;;;25.90;26.40;;;;;;5101484;28;20122;-81